createdAt,value
2019-05-16T00:09:28.822Z,66.1
2019-05-16T00:19:32.274Z,67.6
2019-05-16T00:29:35.727Z,65.1
2019-05-16T00:39:41.761Z,63.8
2019-05-16T00:49:45.235Z,66.2
2019-05-16T00:59:51.244Z,66.6
2019-05-16T01:09:54.647Z,67.6
2019-05-16T01:19:58.155Z,65.9
2019-05-16T01:30:01.618Z,66.6
2019-05-16T01:40:05.093Z,67.5
2019-05-16T01:50:09.025Z,68.9
2019-05-16T02:00:12.502Z,71.3
2019-05-16T02:10:18.309Z,73.8
2019-05-16T02:20:21.777Z,83.4
2019-05-16T02:30:25.237Z,79.1
2019-05-16T02:40:31.634Z,83.8
2019-05-16T02:50:35.095Z,82.7
2019-05-16T03:00:43.043Z,83.6
2019-05-16T03:10:46.646Z,85
2019-05-16T03:20:51.290Z,90.4
2019-05-16T03:30:55.334Z,84.8
2019-05-16T03:41:01.233Z,91
2019-05-16T03:51:04.749Z,90.1
2019-05-16T04:01:11.791Z,92.5
2019-05-16T04:11:23.145Z,95
2019-05-16T04:21:27.260Z,95.8
2019-05-16T04:31:31.244Z,95.9
2019-05-16T04:41:34.711Z,94.7
2019-05-16T04:51:41.738Z,94.7
2019-05-16T05:01:45.278Z,95
2019-05-16T05:11:52.258Z,93.7
2019-05-16T05:21:55.701Z,90.6
2019-05-16T05:32:05.461Z,93.4
2019-05-16T05:42:10.719Z,90.2
2019-05-16T05:52:14.194Z,84.6
2019-05-16T06:02:20.311Z,70.1
2019-05-16T06:12:23.800Z,57.6
2019-05-16T06:22:30.038Z,66.3
2019-05-16T06:32:33.474Z,68.4
2019-05-16T06:42:36.931Z,65.3
2019-05-16T06:52:41.132Z,62.2
2019-05-16T07:02:44.567Z,64.1
2019-05-16T07:12:50.613Z,67.6
2019-05-16T07:22:54.045Z,65.1
2019-05-16T07:32:57.515Z,61.5
2019-05-16T07:43:00.915Z,69.8
2019-05-16T07:53:04.350Z,61.8
2019-05-16T08:03:10.702Z,64.4
2019-05-16T08:13:20.751Z,61.7
2019-05-16T08:23:24.828Z,61.8
2019-05-16T08:33:32.312Z,68.8
2019-05-16T08:43:35.764Z,63.2
2019-05-16T08:53:43.762Z,62.4
2019-05-16T09:03:47.348Z,60.9
2019-05-16T09:13:50.846Z,70.7
2019-05-16T09:23:54.310Z,71
2019-05-16T09:33:57.728Z,68.3
2019-05-16T09:44:01.135Z,69.1
2019-05-16T09:54:07.384Z,66.5
2019-05-16T10:04:10.901Z,64.4
2019-05-16T10:14:14.377Z,77.4
2019-05-16T10:24:17.809Z,71.5
2019-05-16T10:34:21.268Z,65.8
2019-05-16T10:44:27.809Z,63.2
2019-05-16T10:54:32.155Z,64
2019-05-16T11:05:02.651Z,62.9
2019-05-16T11:15:39.336Z,62.9
2019-05-16T11:25:42.774Z,68.5
2019-05-16T11:35:47.910Z,64.6
2019-05-16T11:45:51.350Z,64.5
2019-05-16T11:56:01.977Z,64.7
2019-05-16T12:06:11.364Z,69.1
2019-05-16T12:16:18.980Z,61.3
2019-05-16T12:26:22.588Z,64.9
2019-05-16T12:36:26.990Z,63.9
2019-05-16T12:46:30.436Z,68.9
2019-05-16T12:56:33.953Z,59.7
2019-05-16T13:06:37.416Z,60.4
2019-05-16T13:16:40.908Z,59.8
2019-05-16T13:26:44.358Z,61.8
2019-05-16T13:36:47.943Z,58.1
2019-05-16T13:46:51.395Z,58.7
2019-05-16T13:56:57.426Z,58.4
2019-05-16T14:07:00.936Z,57.9
2019-05-16T14:17:14.502Z,59.4
2019-05-16T14:27:21.420Z,58.5
2019-05-16T14:37:27.013Z,59.7
2019-05-16T14:47:30.458Z,60
2019-05-16T14:57:33.899Z,61.1
2019-05-16T15:07:40.051Z,59.8
2019-05-16T15:17:43.511Z,59.4
2019-05-16T15:27:48.091Z,60.5
2019-05-16T15:37:51.530Z,59.6
2019-05-16T15:48:00.002Z,62.1
2019-05-16T15:58:03.468Z,60.7
2019-05-16T16:08:07.194Z,65.8
2019-05-16T16:18:10.626Z,63.3
2019-05-16T16:28:14.100Z,60.7
2019-05-16T16:38:17.554Z,60.7
2019-05-16T16:48:21.014Z,62.9
2019-05-16T16:58:26.799Z,64.6
2019-05-16T17:08:30.588Z,66.1
2019-05-16T17:18:34.018Z,64
2019-05-16T17:28:40.226Z,66.4
2019-05-16T17:38:43.674Z,68.8
2019-05-16T17:48:47.163Z,69.8
2019-05-16T17:58:50.580Z,69.8
2019-05-16T18:08:54.007Z,71.3
2019-05-16T18:18:57.737Z,69.8
2019-05-16T18:29:01.203Z,72.7
2019-05-16T18:39:06.685Z,75.6
2019-05-16T18:49:10.177Z,78.3
2019-05-16T18:59:13.658Z,87.9
2019-05-16T19:09:17.097Z,90.8
2019-05-16T19:19:20.554Z,90.8
2019-05-16T19:29:26.529Z,93.3
2019-05-16T19:39:30.014Z,93.8
2019-05-16T19:49:33.496Z,94.4
2019-05-16T19:59:36.961Z,93.6
2019-05-16T20:09:40.434Z,93.4
2019-05-16T20:19:43.880Z,95.3
2019-05-16T20:29:47.654Z,96.4
2019-05-16T20:39:51.096Z,98.3
2019-05-16T20:49:57.139Z,95.5
2019-05-16T21:00:00.591Z,98.8
2019-05-16T21:10:04.058Z,99.9
2019-05-16T21:20:07.889Z,99.9
2019-05-16T21:30:11.345Z,99.9
2019-05-16T21:40:17.128Z,99.9
2019-05-16T21:50:20.556Z,99.9
2019-05-16T22:00:26.683Z,99.9
2019-05-16T22:10:30.135Z,99.9
2019-05-16T22:20:33.601Z,99.9
2019-05-16T22:30:37.061Z,99.9
2019-05-16T22:40:40.516Z,99.9
2019-05-16T22:50:43.984Z,99.9
2019-05-16T23:00:47.425Z,99.9
2019-05-16T23:10:50.887Z,99.9
2019-05-16T23:20:56.775Z,99.9
2019-05-16T23:31:00.486Z,99.9
2019-05-16T23:41:06.829Z,99.9
2019-05-16T23:51:10.373Z,99.9
